Needles Airport
KEED : now visible

Airfield :











YOU CAN JOIN US ON...

 
LOGIN :

Register | Disclaimer

   EN    FR    IT 

 









Legend :    VFR   Marginal VFR   IFR   Intensive IFR   Very Intensive IFR
Visi :
Ceiling :
>= 8 km
>= 3000ft
5 to 8 km
1000 to 3000 ft
1500m to 5 km
500 to 1000 ft
800 to 1500m
200 to 500 ft
< 800m
< 200 ft
Symbols :   Thunderstorms  Fog  Heavy snow  Heavy precipitations  Wind > 20 kt






- Airport Elevation : 983 ft


KEED - Needles

CURRENT METAR :
  • 072056Z AUTO 11008G16KT 10SM CLR 26/02 A2998 RMK AO2 SLP130 T02560022 58020

EXPIRED METARs :
  • 071956Z AUTO 15010KT 10SM SCT070 24/04 A3001 RMK AO2 SLP142 T02390044
  • 071856Z AUTO 14007G15KT 10SM BKN075 23/06 A3003 RMK AO2 SLP149 T02280056

TAF KEED
Valid from the 07 at 18:00 until the 08 at 18:00 UTC


071738Z 0718/0818 VRB05KT P6SM BKN080
FM072000 18011G18KT P6SM SCT080
FM080300 23008KT P6SM SCT080 BKN250
FM081200 24006KT P6SM VCSH BKN100
FM081500 18011KT P6SM -RA BKN050



MET'MAP, your aeronautical weather chart ! - Copyright ORBIFLY December 2007 - Disclaimer

ORBIFLY MET'MAP TEAM :

Programming & Development : Alexandra Zaïnal
Concept & original design : Baudouin d'Aumeries
Assistance for programming : Marc-Olivier Méhu
Technical & hardware support : Manuel Goepfert

Contact : metmap@orbifly.com




SOURCES & CREDITS :

   NOAA       Earth
Advisory